64057 station(s) have been heard in the last 24 hours.

<< 620 621 622 623 624 625 626 >>
  Name/Id Latest heard Comment/Other Map
Symbol F8KGK-3 1788371080 LoRa_APRS_iGate Map
Symbol N1CLC 1788371080 014.063MHz SOTA activation W7A/AP-033 Map
Symbol IR3UAP-C 1788371080 2m Voice (D-Star) 145.57500MHz -0.6000MHz Map
Symbol 439.800 1788371080 439.800MHz -940 R60k F5ZEE-B DStar JN38TX Map
Symbol KJ4YNR C 1788371080 2m Voice 145.180 -0.600 Mhz Map
Symbol JQ1ZPA-B 1788371080 70cm Voice (D-Star) 438.93000MHz +0.0000MHz Map
Symbol IU8MHJ-D 1788371080 70cm MMDVM Voice (DMR) 430.80000MHz +2.8500MHz, APRS for DMRGateway Map
Symbol 6K5CRS B 1788371080 70cm Voice (D-Star) 434.60000MHz +0.0000MHz Map
Symbol 9W2BWS-5 1788371079 Map
Symbol EC5RCA-10 1788371079 iGATE & DIGI Map
Symbol DM5AO-10 1788371079 GaS: 170.11KohmsLoRa APRS im Boetzow-Kietz Ext=0.70V Map
Symbol EB7BZA-15 1788371079 5.20V 36C 43%RH 1032hPa Map
Symbol K2SKA-R 1788371079 70cm MMDVM Voice (C4FM) 440.50000MHz +5.0000MHz, K2SKA_Pi-Star_RPT Map
Symbol OH1E 1788371079 WEBSDR.FI OH1E 145.550MHz oh1e.com Map
Symbol M7ORT-B 1788371079 70cm Voice (D-Star) 438.80000MHz +0.0000MHz Map
Symbol DG4BRT-D 1788371079 70cm MMDVM Voice (DMR) 434.82500MHz +0.0000MHz, APRS for DMRGateway Map
Symbol KN6PHW 1788371079 'MT-RTG|3 Map
Symbol OH1MP 1788371079 OH1MP QTH 145.550MHz Map
Symbol OH7RDA-1 1788371079 https://wiki.sral.fi/wiki/LoRa_APRS Map
Symbol VK2YBB-N 1788371079 70cm MMDVM Voice (C4FM) 440.10000MHz +0.0000MHz, VK2YBB_Pi-Star_ND Map
Symbol OH1EDK 1788371079 OH1EDK QTH 145.550MHz Map
Symbol KQ4TNV-R 1788371079 70cm MMDVM Voice (C4FM) 446.41250MHz -5.0000MHz, KQ4TNV_Pi-Star_RPT Map
Symbol DK8RG-11 1788371079 TemperaturmeSsung ber LoRa APRS Batteriespannung=4.14V Wassertemperatur=25.0C Map
Symbol BI1GGL-2 1788371079 E1[NRL_2100A_D4_251206_C1 12.6V RX:434.7500:82.5 TX:434.7500:82.5] HELLO Map
Symbol KM4AF-B 1788371079 70cm Voice (D-Star) 430.41250MHz +0.0000MHz Map
Symbol SIILIN 1788371079 LRE.jS Map
Symbol KD3BQW-C 1788371079 2m Voice (D-Star) 147.10500MHz +0.6000MHz Map
Symbol RUSSARO 1788371079 LRE.jS W6 M92 Map
Symbol KE9EMV-10 1788371079 KE9EMV IGate & Digipeat Map
Symbol IU5RCJ-7 1788371079 https://aprsdroid.org Map
Symbol SQ5NBR-11 1788371079 Lora Digi 434.855MHz @1k2 Batt=4.34V Map
Symbol PE2ETE-10 1788371079 IJLST 433.775MHz. Map
Symbol 145.612DL 1788371079 145.612MHz C127 -060 R40k SR5S Siedlce FM Map
Symbol PY2KCA C 1788371079 2m Voice (D-Star) 145.23000MHz -0.6000MHz, APRS for ircDDBGateway Map
Symbol OH1U 1788371079 OH1U QTH 145.550MHz Map
Symbol KO4MQC-2 1788371078 DigiPi http://digipi.org Map
Symbol VE2FXM-D 1788371078 70cm MMDVM Voice (DMR) 445.00000MHz -6.0000MHz, APRS for DMRGateway Map
Symbol DJ0JJ-12 1788371078 Solarnode 20W/3x18650#Franz/B=088/N19 Map
Symbol KO4XJ-D 1788371078 70cm Voice (D-Star) 439.07500MHz +0.0000MHz Map
Symbol HB9VCJ-9 1788371078 145.500 / TG22811 / TG208 Map
Symbol 9W2MQG-5 1788371078 https://aprsdroid.org Map
Symbol ON8PMO B 1788371078 70cm Voice (D-Star) 434.92500MHz +0.0000MHz Map
Symbol YM5KKE-10 1788371078 Map
Symbol ED1ZAB-5 1788371078 APRS DIGI-IGATE -- SOLO RX -- Map
Symbol EFTP 1788371078 LRE.jS V71997 C0/8 Map
Symbol K8XG-Y 1788371078 70cm MMDVM Voice (C4FM) 446.22500MHz +0.0000MHz, APRS for YSFGateway Map
Symbol DO2MIG 1788371078 Map
Symbol S58W-10 1788371078 Map
Symbol SR8NGO-2 1788371078 DIGI GORZKOW Map
Symbol CQ1DAT C 1788371078 2m Voice (D-Star) 145.58750MHz -0.6000MHz Map